sensor_id;sensor_type;location;lat;lon;timestamp;pressure;altitude;pressure_sealevel;temperature;humidity
73918;BME280;62265;52.280;5.162;2022-09-03T00:00:01;101240.77;;;27.14;29.23
73918;BME280;62265;52.280;5.162;2022-09-03T00:02:35;101242.68;;;27.16;29.18
73918;BME280;62265;52.280;5.162;2022-09-03T00:05:07;101241.60;;;27.13;29.15
73918;BME280;62265;52.280;5.162;2022-09-03T00:07:42;101244.52;;;27.07;28.96
73918;BME280;62265;52.280;5.162;2022-09-03T00:10:15;101240.28;;;27.03;29.04
73918;BME280;62265;52.280;5.162;2022-09-03T00:12:46;101239.53;;;27.02;29.21
73918;BME280;62265;52.280;5.162;2022-09-03T00:15:17;101236.43;;;26.97;29.10
73918;BME280;62265;52.280;5.162;2022-09-03T00:17:49;101235.99;;;26.95;29.31
73918;BME280;62265;52.280;5.162;2022-09-03T00:20:20;101235.90;;;26.96;29.46
73918;BME280;62265;52.280;5.162;2022-09-03T00:22:50;101234.65;;;26.93;29.30
73918;BME280;62265;52.280;5.162;2022-09-03T00:25:21;101231.41;;;26.89;28.99
73918;BME280;62265;52.280;5.162;2022-09-03T00:27:52;101229.89;;;26.91;29.49
73918;BME280;62265;52.280;5.162;2022-09-03T00:30:21;101225.42;;;26.90;29.36
73918;BME280;62265;52.280;5.162;2022-09-03T00:32:51;101226.02;;;26.90;29.02
73918;BME280;62265;52.280;5.162;2022-09-03T00:35:24;101223.09;;;26.86;29.24
73918;BME280;62265;52.280;5.162;2022-09-03T00:37:52;101221.89;;;26.85;29.45
73918;BME280;62265;52.280;5.162;2022-09-03T00:40:32;101224.28;;;26.83;29.23
73918;BME280;62265;52.280;5.162;2022-09-03T00:43:07;101222.99;;;26.80;29.65
73918;BME280;62265;52.280;5.162;2022-09-03T00:45:39;101222.61;;;26.79;29.55
73918;BME280;62265;52.280;5.162;2022-09-03T00:48:17;101222.40;;;26.75;29.31
73918;BME280;62265;52.280;5.162;2022-09-03T00:50:58;101223.96;;;26.73;29.63
73918;BME280;62265;52.280;5.162;2022-09-03T00:53:34;101223.61;;;26.73;29.36
73918;BME280;62265;52.280;5.162;2022-09-03T00:56:13;101218.49;;;26.71;29.89
73918;BME280;62265;52.280;5.162;2022-09-03T00:58:55;101216.16;;;26.72;29.70
73918;BME280;62265;52.280;5.162;2022-09-03T01:01:34;101215.96;;;26.73;29.62
73918;BME280;62265;52.280;5.162;2022-09-03T01:04:17;101216.18;;;26.69;29.52
73918;BME280;62265;52.280;5.162;2022-09-03T01:06:54;101217.27;;;26.63;29.48
73918;BME280;62265;52.280;5.162;2022-09-03T01:09:33;101214.78;;;26.62;29.65
73918;BME280;62265;52.280;5.162;2022-09-03T01:12:11;101213.65;;;26.60;29.59
73918;BME280;62265;52.280;5.162;2022-09-03T01:14:54;101213.10;;;26.58;29.63
73918;BME280;62265;52.280;5.162;2022-09-03T01:17:32;101213.64;;;26.59;30.12
73918;BME280;62265;52.280;5.162;2022-09-03T01:20:11;101216.80;;;26.65;30.07
73918;BME280;62265;52.280;5.162;2022-09-03T01:23:02;101215.85;;;26.68;29.88
73918;BME280;62265;52.280;5.162;2022-09-03T01:25:45;101225.49;;;26.73;29.91
73918;BME280;62265;52.280;5.162;2022-09-03T01:28:22;101225.47;;;26.75;29.91
73918;BME280;62265;52.280;5.162;2022-09-03T01:30:57;101227.76;;;26.79;29.86
73918;BME280;62265;52.280;5.162;2022-09-03T01:33:33;101226.19;;;26.81;29.91
73918;BME280;62265;52.280;5.162;2022-09-03T01:36:09;101227.29;;;26.83;29.97
73918;BME280;62265;52.280;5.162;2022-09-03T01:38:42;101230.20;;;26.85;29.81
73918;BME280;62265;52.280;5.162;2022-09-03T01:41:17;101227.35;;;26.86;29.79
73918;BME280;62265;52.280;5.162;2022-09-03T01:43:53;101224.93;;;26.86;29.80
73918;BME280;62265;52.280;5.162;2022-09-03T01:46:25;101229.72;;;26.85;29.81
73918;BME280;62265;52.280;5.162;2022-09-03T01:49:02;101225.87;;;26.84;29.74
73918;BME280;62265;52.280;5.162;2022-09-03T01:51:31;101223.99;;;26.80;29.74
73918;BME280;62265;52.280;5.162;2022-09-03T01:54:43;101227.02;;;26.79;29.73
73918;BME280;62265;52.280;5.162;2022-09-03T01:57:39;101223.27;;;26.78;29.79
73918;BME280;62265;52.280;5.162;2022-09-03T02:00:09;101225.03;;;26.80;29.80
73918;BME280;62265;52.280;5.162;2022-09-03T02:02:36;101225.28;;;26.80;29.65
73918;BME280;62265;52.280;5.162;2022-09-03T02:05:07;101227.22;;;26.78;29.68
73918;BME280;62265;52.280;5.162;2022-09-03T02:07:37;101227.89;;;26.77;29.80
73918;BME280;62265;52.280;5.162;2022-09-03T02:10:08;101228.10;;;26.75;29.94
73918;BME280;62265;52.280;5.162;2022-09-03T02:12:38;101228.45;;;26.72;29.94
73918;BME280;62265;52.280;5.162;2022-09-03T02:15:09;101221.88;;;26.67;29.82
73918;BME280;62265;52.280;5.162;2022-09-03T02:17:37;101219.06;;;26.65;29.82
73918;BME280;62265;52.280;5.162;2022-09-03T02:20:07;101216.57;;;26.63;29.93
73918;BME280;62265;52.280;5.162;2022-09-03T02:22:35;101214.86;;;26.60;30.01
73918;BME280;62265;52.280;5.162;2022-09-03T02:25:02;101215.50;;;26.58;29.97
73918;BME280;62265;52.280;5.162;2022-09-03T02:27:29;101213.57;;;26.59;30.02
73918;BME280;62265;52.280;5.162;2022-09-03T02:29:57;101209.52;;;26.60;30.00
73918;BME280;62265;52.280;5.162;2022-09-03T02:32:24;101211.07;;;26.59;30.06
73918;BME280;62265;52.280;5.162;2022-09-03T02:34:50;101214.53;;;26.56;29.94
73918;BME280;62265;52.280;5.162;2022-09-03T02:37:18;101215.97;;;26.55;29.94
73918;BME280;62265;52.280;5.162;2022-09-03T02:39:45;101215.44;;;26.53;30.09
73918;BME280;62265;52.280;5.162;2022-09-03T02:42:13;101213.58;;;26.54;29.98
73918;BME280;62265;52.280;5.162;2022-09-03T02:44:42;101213.76;;;26.55;30.12
73918;BME280;62265;52.280;5.162;2022-09-03T02:47:11;101213.05;;;26.55;30.05
73918;BME280;62265;52.280;5.162;2022-09-03T02:49:38;101212.85;;;26.51;30.06
73918;BME280;62265;52.280;5.162;2022-09-03T02:52:06;101212.56;;;26.49;30.02
73918;BME280;62265;52.280;5.162;2022-09-03T02:54:34;101206.93;;;26.47;30.17
73918;BME280;62265;52.280;5.162;2022-09-03T02:57:01;101205.12;;;26.46;30.14
73918;BME280;62265;52.280;5.162;2022-09-03T02:59:28;101204.16;;;26.45;30.13
73918;BME280;62265;52.280;5.162;2022-09-03T03:01:55;101207.32;;;26.43;30.19
73918;BME280;62265;52.280;5.162;2022-09-03T03:04:21;101202.19;;;26.40;30.20
73918;BME280;62265;52.280;5.162;2022-09-03T03:06:48;101203.55;;;26.36;30.13
73918;BME280;62265;52.280;5.162;2022-09-03T03:09:15;101202.30;;;26.32;30.30
73918;BME280;62265;52.280;5.162;2022-09-03T03:11:42;101197.17;;;26.28;30.26
73918;BME280;62265;52.280;5.162;2022-09-03T03:14:09;101197.52;;;26.25;30.31
73918;BME280;62265;52.280;5.162;2022-09-03T03:16:36;101202.64;;;26.23;30.32
73918;BME280;62265;52.280;5.162;2022-09-03T03:19:02;101200.67;;;26.23;30.44
73918;BME280;62265;52.280;5.162;2022-09-03T03:21:29;101201.51;;;26.22;30.54
73918;BME280;62265;52.280;5.162;2022-09-03T03:23:55;101197.24;;;26.21;30.48
73918;BME280;62265;52.280;5.162;2022-09-03T03:26:22;101197.74;;;26.21;30.44
73918;BME280;62265;52.280;5.162;2022-09-03T03:28:54;101196.30;;;26.21;30.46
73918;BME280;62265;52.280;5.162;2022-09-03T03:31:21;101195.51;;;26.20;30.43
73918;BME280;62265;52.280;5.162;2022-09-03T03:33:50;101196.18;;;26.19;30.49
73918;BME280;62265;52.280;5.162;2022-09-03T03:36:17;101196.38;;;26.16;30.57
73918;BME280;62265;52.280;5.162;2022-09-03T03:38:44;101199.98;;;26.16;30.60
73918;BME280;62265;52.280;5.162;2022-09-03T03:41:13;101197.62;;;26.15;30.49
73918;BME280;62265;52.280;5.162;2022-09-03T03:43:40;101197.40;;;26.12;30.61
73918;BME280;62265;52.280;5.162;2022-09-03T03:46:06;101194.83;;;26.09;30.56
73918;BME280;62265;52.280;5.162;2022-09-03T03:48:33;101193.37;;;26.05;30.62
73918;BME280;62265;52.280;5.162;2022-09-03T03:51:00;101192.55;;;26.05;30.55
73918;BME280;62265;52.280;5.162;2022-09-03T03:53:27;101196.59;;;26.05;30.74
73918;BME280;62265;52.280;5.162;2022-09-03T03:55:55;101196.28;;;26.07;30.79
73918;BME280;62265;52.280;5.162;2022-09-03T03:58:22;101194.30;;;26.07;30.74
73918;BME280;62265;52.280;5.162;2022-09-03T04:00:49;101194.88;;;26.10;30.57
73918;BME280;62265;52.280;5.162;2022-09-03T04:03:16;101201.26;;;26.11;30.84
73918;BME280;62265;52.280;5.162;2022-09-03T04:05:42;101205.43;;;26.14;30.75
73918;BME280;62265;52.280;5.162;2022-09-03T04:08:09;101202.51;;;26.15;30.77
73918;BME280;62265;52.280;5.162;2022-09-03T04:10:36;101204.75;;;26.14;30.74
73918;BME280;62265;52.280;5.162;2022-09-03T04:13:02;101201.18;;;26.10;30.77
73918;BME280;62265;52.280;5.162;2022-09-03T04:15:29;101197.13;;;26.05;30.65
73918;BME280;62265;52.280;5.162;2022-09-03T04:17:56;101196.65;;;26.03;30.84
73918;BME280;62265;52.280;5.162;2022-09-03T04:20:23;101196.50;;;26.03;31.14
73918;BME280;62265;52.280;5.162;2022-09-03T04:22:49;101194.37;;;26.05;31.02
73918;BME280;62265;52.280;5.162;2022-09-03T04:25:16;101192.56;;;26.04;30.99
73918;BME280;62265;52.280;5.162;2022-09-03T04:27:43;101189.98;;;26.01;31.02
73918;BME280;62265;52.280;5.162;2022-09-03T04:30:10;101188.29;;;25.99;30.78
73918;BME280;62265;52.280;5.162;2022-09-03T04:32:37;101185.85;;;25.95;30.75
73918;BME280;62265;52.280;5.162;2022-09-03T04:35:05;101186.71;;;25.90;30.80
73918;BME280;62265;52.280;5.162;2022-09-03T04:37:32;101184.54;;;25.88;30.87
73918;BME280;62265;52.280;5.162;2022-09-03T04:39:58;101187.04;;;25.84;31.05
73918;BME280;62265;52.280;5.162;2022-09-03T04:42:26;101185.98;;;25.84;30.93
73918;BME280;62265;52.280;5.162;2022-09-03T04:44:53;101184.34;;;25.82;30.78
73918;BME280;62265;52.280;5.162;2022-09-03T04:47:20;101184.95;;;25.80;31.02
73918;BME280;62265;52.280;5.162;2022-09-03T04:49:46;101186.71;;;25.77;31.01
73918;BME280;62265;52.280;5.162;2022-09-03T04:52:13;101187.93;;;25.73;30.97
73918;BME280;62265;52.280;5.162;2022-09-03T04:54:40;101188.09;;;25.71;31.09
73918;BME280;62265;52.280;5.162;2022-09-03T04:57:07;101192.21;;;25.69;31.00
73918;BME280;62265;52.280;5.162;2022-09-03T04:59:33;101187.71;;;25.67;31.00
73918;BME280;62265;52.280;5.162;2022-09-03T05:02:00;101188.23;;;25.66;31.06
73918;BME280;62265;52.280;5.162;2022-09-03T05:04:27;101185.89;;;25.68;31.08
73918;BME280;62265;52.280;5.162;2022-09-03T05:06:54;101185.66;;;25.69;31.10
73918;BME280;62265;52.280;5.162;2022-09-03T05:09:21;101188.28;;;25.68;31.18
73918;BME280;62265;52.280;5.162;2022-09-03T05:11:47;101192.47;;;25.68;31.16
73918;BME280;62265;52.280;5.162;2022-09-03T05:14:14;101197.02;;;25.70;31.07
73918;BME280;62265;52.280;5.162;2022-09-03T05:16:41;101195.99;;;25.73;31.10
73918;BME280;62265;52.280;5.162;2022-09-03T05:19:08;101192.86;;;25.76;31.12
73918;BME280;62265;52.280;5.162;2022-09-03T05:21:34;101192.65;;;25.76;31.25
73918;BME280;62265;52.280;5.162;2022-09-03T05:24:02;101194.02;;;25.77;30.97
73918;BME280;62265;52.280;5.162;2022-09-03T05:26:30;101193.96;;;25.74;31.17
73918;BME280;62265;52.280;5.162;2022-09-03T05:28:59;101196.31;;;25.72;31.15
73918;BME280;62265;52.280;5.162;2022-09-03T05:31:28;101191.63;;;25.71;31.10
73918;BME280;62265;52.280;5.162;2022-09-03T05:33:57;101187.95;;;25.69;31.21
73918;BME280;62265;52.280;5.162;2022-09-03T05:36:25;101192.29;;;25.68;31.24
73918;BME280;62265;52.280;5.162;2022-09-03T05:38:53;101189.96;;;25.67;31.27
73918;BME280;62265;52.280;5.162;2022-09-03T05:41:21;101191.28;;;25.65;31.33
73918;BME280;62265;52.280;5.162;2022-09-03T05:43:49;101189.77;;;25.64;31.27
73918;BME280;62265;52.280;5.162;2022-09-03T05:46:16;101189.96;;;25.61;31.25
73918;BME280;62265;52.280;5.162;2022-09-03T05:48:43;101188.76;;;25.58;31.38
73918;BME280;62265;52.280;5.162;2022-09-03T05:51:11;101185.81;;;25.56;31.39
73918;BME280;62265;52.280;5.162;2022-09-03T05:53:39;101186.88;;;25.56;31.29
73918;BME280;62265;52.280;5.162;2022-09-03T05:56:08;101185.76;;;25.55;31.32
73918;BME280;62265;52.280;5.162;2022-09-03T05:58:37;101186.39;;;25.53;31.51
73918;BME280;62265;52.280;5.162;2022-09-03T06:01:09;101192.20;;;25.50;31.56
73918;BME280;62265;52.280;5.162;2022-09-03T06:03:36;101192.48;;;25.48;31.56
73918;BME280;62265;52.280;5.162;2022-09-03T06:06:03;101193.15;;;25.48;31.61
73918;BME280;62265;52.280;5.162;2022-09-03T06:08:30;101197.74;;;25.48;31.57
73918;BME280;62265;52.280;5.162;2022-09-03T06:10:57;101196.26;;;25.49;31.60
73918;BME280;62265;52.280;5.162;2022-09-03T06:13:24;101196.68;;;25.46;31.70
73918;BME280;62265;52.280;5.162;2022-09-03T06:15:55;101201.09;;;25.46;31.34
73918;BME280;62265;52.280;5.162;2022-09-03T06:18:22;101200.79;;;25.44;31.84
73918;BME280;62265;52.280;5.162;2022-09-03T06:20:53;101200.71;;;25.45;31.77
73918;BME280;62265;52.280;5.162;2022-09-03T06:23:19;101200.72;;;25.44;31.79
73918;BME280;62265;52.280;5.162;2022-09-03T06:25:46;101198.36;;;25.41;31.88
73918;BME280;62265;52.280;5.162;2022-09-03T06:28:13;101196.07;;;25.41;31.88
73918;BME280;62265;52.280;5.162;2022-09-03T06:30:40;101201.79;;;25.41;31.98
73918;BME280;62265;52.280;5.162;2022-09-03T06:33:06;101204.08;;;25.41;32.06
73918;BME280;62265;52.280;5.162;2022-09-03T06:35:33;101203.22;;;25.39;31.93
73918;BME280;62265;52.280;5.162;2022-09-03T06:38:00;101202.98;;;25.37;32.09
73918;BME280;62265;52.280;5.162;2022-09-03T06:40:27;101201.31;;;25.36;32.35
73918;BME280;62265;52.280;5.162;2022-09-03T06:42:55;101203.00;;;25.36;32.63
73918;BME280;62265;52.280;5.162;2022-09-03T06:45:23;101205.30;;;25.39;32.28
73918;BME280;62265;52.280;5.162;2022-09-03T06:47:49;101207.19;;;25.41;32.44
73918;BME280;62265;52.280;5.162;2022-09-03T06:50:16;101205.51;;;25.36;32.07
73918;BME280;62265;52.280;5.162;2022-09-03T06:52:43;101204.25;;;25.26;32.41
73918;BME280;62265;52.280;5.162;2022-09-03T06:55:10;101208.83;;;25.19;32.61
73918;BME280;62265;52.280;5.162;2022-09-03T06:57:36;101208.78;;;25.05;32.85
73918;BME280;62265;52.280;5.162;2022-09-03T07:00:04;101214.48;;;24.98;32.82
73918;BME280;62265;52.280;5.162;2022-09-03T07:02:31;101213.60;;;24.93;33.30
73918;BME280;62265;52.280;5.162;2022-09-03T07:04:58;101213.62;;;24.97;33.34
73918;BME280;62265;52.280;5.162;2022-09-03T07:07:24;101215.52;;;24.98;33.26
73918;BME280;62265;52.280;5.162;2022-09-03T07:09:51;101213.64;;;24.91;33.52
73918;BME280;62265;52.280;5.162;2022-09-03T07:12:18;101212.05;;;24.88;33.50
73918;BME280;62265;52.280;5.162;2022-09-03T07:14:45;101210.17;;;24.84;33.56
73918;BME280;62265;52.280;5.162;2022-09-03T07:17:12;101211.50;;;24.81;33.74
73918;BME280;62265;52.280;5.162;2022-09-03T07:19:39;101210.85;;;24.83;33.91
73918;BME280;62265;52.280;5.162;2022-09-03T07:22:05;101212.02;;;24.81;34.00
73918;BME280;62265;52.280;5.162;2022-09-03T07:24:32;101209.43;;;24.78;34.06
73918;BME280;62265;52.280;5.162;2022-09-03T07:26:58;101211.33;;;24.77;34.13
73918;BME280;62265;52.280;5.162;2022-09-03T07:29:25;101211.78;;;24.80;34.11
73918;BME280;62265;52.280;5.162;2022-09-03T07:31:52;101211.14;;;24.82;34.11
73918;BME280;62265;52.280;5.162;2022-09-03T07:34:20;101210.66;;;24.81;34.05
73918;BME280;62265;52.280;5.162;2022-09-03T07:36:47;101211.73;;;24.79;34.08
73918;BME280;62265;52.280;5.162;2022-09-03T07:39:15;101213.12;;;24.76;34.20
73918;BME280;62265;52.280;5.162;2022-09-03T07:41:43;101214.22;;;24.78;34.15
73918;BME280;62265;52.280;5.162;2022-09-03T07:44:10;101212.55;;;24.77;34.19
73918;BME280;62265;52.280;5.162;2022-09-03T07:46:37;101208.93;;;24.71;34.49
73918;BME280;62265;52.280;5.162;2022-09-03T07:49:05;101211.57;;;24.77;34.35
73918;BME280;62265;52.280;5.162;2022-09-03T07:51:34;101214.59;;;24.83;34.79
73918;BME280;62265;52.280;5.162;2022-09-03T07:54:02;101217.13;;;24.91;35.59
73918;BME280;62265;52.280;5.162;2022-09-03T07:56:29;101216.52;;;24.98;34.78
73918;BME280;62265;52.280;5.162;2022-09-03T07:58:57;101218.12;;;24.97;35.48
73918;BME280;62265;52.280;5.162;2022-09-03T08:01:26;101219.04;;;24.98;34.98
73918;BME280;62265;52.280;5.162;2022-09-03T08:03:54;101215.57;;;24.99;34.39
73918;BME280;62265;52.280;5.162;2022-09-03T08:06:22;101218.63;;;25.01;34.20
73918;BME280;62265;52.280;5.162;2022-09-03T08:09:01;101218.13;;;25.01;34.27
73918;BME280;62265;52.280;5.162;2022-09-03T08:11:29;101219.98;;;25.04;34.52
73918;BME280;62265;52.280;5.162;2022-09-03T08:13:57;101222.25;;;25.07;34.99
73918;BME280;62265;52.280;5.162;2022-09-03T08:16:24;101217.44;;;25.10;34.77
73918;BME280;62265;52.280;5.162;2022-09-03T08:18:51;101222.57;;;25.09;34.36
73918;BME280;62265;52.280;5.162;2022-09-03T08:21:19;101227.22;;;25.10;33.95
73918;BME280;62265;52.280;5.162;2022-09-03T08:23:48;101230.72;;;25.05;34.46
73918;BME280;62265;52.280;5.162;2022-09-03T08:26:16;101233.47;;;25.01;34.53
73918;BME280;62265;52.280;5.162;2022-09-03T08:28:44;101237.98;;;24.96;34.71
73918;BME280;62265;52.280;5.162;2022-09-03T08:31:13;101238.10;;;24.92;34.65
73918;BME280;62265;52.280;5.162;2022-09-03T08:33:41;101234.58;;;24.88;34.86
73918;BME280;62265;52.280;5.162;2022-09-03T08:36:10;101236.39;;;24.78;34.94
73918;BME280;62265;52.280;5.162;2022-09-03T08:38:37;101239.29;;;24.76;35.09
73918;BME280;62265;52.280;5.162;2022-09-03T08:41:06;101233.18;;;24.75;34.92
73918;BME280;62265;52.280;5.162;2022-09-03T08:43:51;101238.59;;;24.80;34.76
73918;BME280;62265;52.280;5.162;2022-09-03T08:46:25;101236.47;;;24.79;34.83
73918;BME280;62265;52.280;5.162;2022-09-03T08:48:53;101239.09;;;24.81;34.94
73918;BME280;62265;52.280;5.162;2022-09-03T08:51:22;101236.78;;;24.80;34.94
73918;BME280;62265;52.280;5.162;2022-09-03T08:53:52;101235.47;;;24.81;34.87
73918;BME280;62265;52.280;5.162;2022-09-03T08:56:24;101234.49;;;24.85;34.79
73918;BME280;62265;52.280;5.162;2022-09-03T08:58:53;101236.36;;;24.91;34.58
73918;BME280;62265;52.280;5.162;2022-09-03T09:01:28;101238.30;;;24.95;34.73
73918;BME280;62265;52.280;5.162;2022-09-03T09:04:06;101237.63;;;25.01;34.58
73918;BME280;62265;52.280;5.162;2022-09-03T09:06:41;101243.37;;;25.03;35.87
73918;BME280;62265;52.280;5.162;2022-09-03T09:09:19;101244.79;;;25.01;36.63
73918;BME280;62265;52.280;5.162;2022-09-03T09:12:00;101246.29;;;25.02;34.61
73918;BME280;62265;52.280;5.162;2022-09-03T09:14:35;101242.22;;;25.12;35.11
73918;BME280;62265;52.280;5.162;2022-09-03T09:17:15;101240.12;;;25.21;34.95
73918;BME280;62265;52.280;5.162;2022-09-03T09:19:53;101233.54;;;25.25;34.71
73918;BME280;62265;52.280;5.162;2022-09-03T09:22:25;101231.38;;;25.22;34.54
73918;BME280;62265;52.280;5.162;2022-09-03T09:24:57;101236.03;;;25.19;34.36
73918;BME280;62265;52.280;5.162;2022-09-03T09:27:26;101232.75;;;25.21;34.31
73918;BME280;62265;52.280;5.162;2022-09-03T09:29:58;101231.08;;;25.24;34.53
73918;BME280;62265;52.280;5.162;2022-09-03T09:32:27;101227.83;;;25.22;34.57
73918;BME280;62265;52.280;5.162;2022-09-03T09:34:53;101224.15;;;25.24;34.52
73918;BME280;62265;52.280;5.162;2022-09-03T09:37:20;101228.27;;;25.15;34.60
73918;BME280;62265;52.280;5.162;2022-09-03T09:39:56;101227.89;;;25.22;34.51
73918;BME280;62265;52.280;5.162;2022-09-03T09:42:24;101228.88;;;25.24;34.41
73918;BME280;62265;52.280;5.162;2022-09-03T09:44:51;101229.08;;;25.25;34.52
73918;BME280;62265;52.280;5.162;2022-09-03T09:47:23;101227.30;;;25.22;34.43
73918;BME280;62265;52.280;5.162;2022-09-03T09:49:53;101226.39;;;25.16;34.35
73918;BME280;62265;52.280;5.162;2022-09-03T09:52:21;101226.13;;;25.15;34.28
73918;BME280;62265;52.280;5.162;2022-09-03T09:54:47;101222.50;;;25.19;34.22
73918;BME280;62265;52.280;5.162;2022-09-03T09:57:16;101222.38;;;25.23;34.27
73918;BME280;62265;52.280;5.162;2022-09-03T09:59:44;101222.88;;;25.29;34.22
73918;BME280;62265;52.280;5.162;2022-09-03T10:02:13;101223.77;;;25.31;34.05
73918;BME280;62265;52.280;5.162;2022-09-03T10:04:41;101222.10;;;25.36;34.13
73918;BME280;62265;52.280;5.162;2022-09-03T10:07:20;101223.60;;;25.37;34.20
73918;BME280;62265;52.280;5.162;2022-09-03T10:09:58;101220.12;;;25.31;34.39
73918;BME280;62265;52.280;5.162;2022-09-03T10:12:30;101218.95;;;25.35;34.33
73918;BME280;62265;52.280;5.162;2022-09-03T10:15:02;101221.20;;;25.39;34.10
73918;BME280;62265;52.280;5.162;2022-09-03T10:17:42;101215.14;;;25.46;33.89
73918;BME280;62265;52.280;5.162;2022-09-03T10:20:13;101213.90;;;25.51;33.92
73918;BME280;62265;52.280;5.162;2022-09-03T10:22:46;101214.51;;;25.56;33.94
73918;BME280;62265;52.280;5.162;2022-09-03T10:25:16;101211.40;;;25.57;34.10
73918;BME280;62265;52.280;5.162;2022-09-03T10:27:46;101207.14;;;25.60;33.84
73918;BME280;62265;52.280;5.162;2022-09-03T10:30:13;101204.04;;;25.61;33.94
73918;BME280;62265;52.280;5.162;2022-09-03T10:32:45;101203.59;;;25.59;33.97
73918;BME280;62265;52.280;5.162;2022-09-03T10:35:19;101208.36;;;25.53;34.23
73918;BME280;62265;52.280;5.162;2022-09-03T10:37:56;101203.81;;;25.55;34.25
73918;BME280;62265;52.280;5.162;2022-09-03T10:40:29;101207.10;;;25.56;34.24
73918;BME280;62265;52.280;5.162;2022-09-03T10:43:09;101201.15;;;25.56;34.27
73918;BME280;62265;52.280;5.162;2022-09-03T10:45:48;101200.24;;;25.59;34.08
73918;BME280;62265;52.280;5.162;2022-09-03T10:49:34;101186.79;;;25.69;33.80
73918;BME280;62265;52.280;5.162;2022-09-03T10:52:10;101195.91;;;25.75;33.69
73918;BME280;62265;52.280;5.162;2022-09-03T10:54:49;101192.42;;;25.76;33.66
73918;BME280;62265;52.280;5.162;2022-09-03T10:57:29;101192.35;;;25.78;33.39
73918;BME280;62265;52.280;5.162;2022-09-03T11:00:04;101191.97;;;25.77;33.30
73918;BME280;62265;52.280;5.162;2022-09-03T11:02:46;101187.13;;;25.80;33.17
73918;BME280;62265;52.280;5.162;2022-09-03T11:05:21;101183.45;;;25.82;33.32
73918;BME280;62265;52.280;5.162;2022-09-03T11:07:50;101187.40;;;25.82;33.25
73918;BME280;62265;52.280;5.162;2022-09-03T11:10:22;101186.77;;;25.87;33.20
73918;BME280;62265;52.280;5.162;2022-09-03T11:13:00;101189.60;;;25.89;33.10
73918;BME280;62265;52.280;5.162;2022-09-03T11:15:33;101190.61;;;25.85;32.83
73918;BME280;62265;52.280;5.162;2022-09-03T11:18:05;101197.61;;;26.01;32.81
73918;BME280;62265;52.280;5.162;2022-09-03T11:20:39;101190.01;;;26.05;32.72
73918;BME280;62265;52.280;5.162;2022-09-03T11:23:07;101194.60;;;26.03;32.66
73918;BME280;62265;52.280;5.162;2022-09-03T11:25:49;101189.27;;;26.05;32.60
73918;BME280;62265;52.280;5.162;2022-09-03T11:28:25;101186.31;;;26.11;32.55
73918;BME280;62265;52.280;5.162;2022-09-03T11:31:05;101187.91;;;26.14;32.58
73918;BME280;62265;52.280;5.162;2022-09-03T11:33:40;101179.87;;;26.13;32.54
73918;BME280;62265;52.280;5.162;2022-09-03T11:36:10;101180.52;;;26.08;32.63
73918;BME280;62265;52.280;5.162;2022-09-03T11:38:37;101183.71;;;26.11;32.59
73918;BME280;62265;52.280;5.162;2022-09-03T11:41:11;101180.15;;;26.04;32.67
73918;BME280;62265;52.280;5.162;2022-09-03T11:43:38;101177.16;;;26.10;32.64
73918;BME280;62265;52.280;5.162;2022-09-03T11:46:08;101177.76;;;26.14;32.52
73918;BME280;62265;52.280;5.162;2022-09-03T11:48:39;101175.62;;;26.19;32.46
73918;BME280;62265;52.280;5.162;2022-09-03T11:51:18;101170.70;;;26.25;32.45
73918;BME280;62265;52.280;5.162;2022-09-03T11:53:53;101166.19;;;26.36;32.37
73918;BME280;62265;52.280;5.162;2022-09-03T11:56:20;101172.19;;;26.51;32.19
73918;BME280;62265;52.280;5.162;2022-09-03T11:58:59;101175.63;;;26.53;32.07
73918;BME280;62265;52.280;5.162;2022-09-03T12:01:27;101173.05;;;26.58;32.08
73918;BME280;62265;52.280;5.162;2022-09-03T12:03:59;101172.70;;;26.56;31.98
73918;BME280;62265;52.280;5.162;2022-09-03T12:06:41;101163.89;;;26.64;31.86
73918;BME280;62265;52.280;5.162;2022-09-03T12:09:23;101168.22;;;26.58;31.85
73918;BME280;62265;52.280;5.162;2022-09-03T12:12:03;101168.18;;;26.56;31.85
73918;BME280;62265;52.280;5.162;2022-09-03T12:14:39;101173.55;;;26.70;31.29
73918;BME280;62265;52.280;5.162;2022-09-03T12:17:18;101170.68;;;26.93;31.46
73918;BME280;62265;52.280;5.162;2022-09-03T12:19:52;101167.43;;;27.02;31.51
73918;BME280;62265;52.280;5.162;2022-09-03T12:22:24;101172.41;;;26.98;31.54
73918;BME280;62265;52.280;5.162;2022-09-03T12:24:51;101172.24;;;26.92;31.46
73918;BME280;62265;52.280;5.162;2022-09-03T12:27:20;101180.25;;;26.97;31.56
73918;BME280;62265;52.280;5.162;2022-09-03T12:29:53;101177.64;;;26.91;31.67
73918;BME280;62265;52.280;5.162;2022-09-03T12:32:21;101176.63;;;26.86;31.83
73918;BME280;62265;52.280;5.162;2022-09-03T12:34:47;101178.29;;;26.86;31.79
73918;BME280;62265;52.280;5.162;2022-09-03T12:37:19;101177.80;;;26.86;31.71
73918;BME280;62265;52.280;5.162;2022-09-03T12:39:50;101178.66;;;26.84;31.76
73918;BME280;62265;52.280;5.162;2022-09-03T12:42:21;101177.64;;;26.94;31.76
73918;BME280;62265;52.280;5.162;2022-09-03T12:44:48;101169.59;;;26.91;31.81
73918;BME280;62265;52.280;5.162;2022-09-03T12:47:16;101177.83;;;26.91;31.69
73918;BME280;62265;52.280;5.162;2022-09-03T12:49:45;101172.82;;;26.91;31.57
73918;BME280;62265;52.280;5.162;2022-09-03T12:52:17;101167.02;;;27.12;31.24
73918;BME280;62265;52.280;5.162;2022-09-03T12:54:49;101160.69;;;27.33;31.21
73918;BME280;62265;52.280;5.162;2022-09-03T12:57:21;101169.34;;;27.45;31.06
73918;BME280;62265;52.280;5.162;2022-09-03T12:59:52;101169.01;;;27.51;30.81
73918;BME280;62265;52.280;5.162;2022-09-03T13:02:23;101171.29;;;27.54;30.99
73918;BME280;62265;52.280;5.162;2022-09-03T13:04:51;101169.03;;;27.61;30.78
73918;BME280;62265;52.280;5.162;2022-09-03T13:07:23;101165.82;;;27.83;29.90